createdAt,value
2022-08-17T00:00:34.472Z,3.85
2022-08-17T00:05:44.031Z,4.22
2022-08-17T00:10:47.428Z,4.30
2022-08-17T00:15:50.957Z,5.25
2022-08-17T00:20:54.749Z,5.32
2022-08-17T00:25:56.891Z,4.57
2022-08-17T00:30:59.297Z,4.87
2022-08-17T00:36:02.965Z,4.57
2022-08-17T00:41:20.928Z,5.07
2022-08-17T00:46:33.027Z,4.15
2022-08-17T00:52:00.266Z,4.85
2022-08-17T00:57:09.995Z,4.40
2022-08-17T01:02:15.042Z,4.30
2022-08-17T01:07:19.462Z,4.62
2022-08-17T01:12:21.657Z,4.57
2022-08-17T01:17:23.822Z,3.72
2022-08-17T01:22:26.686Z,5.57
2022-08-17T01:32:31.584Z,4.62
2022-08-17T01:37:37.627Z,5.07
2022-08-17T01:42:51.548Z,4.78
2022-08-17T01:47:54.840Z,3.78
2022-08-17T01:53:01.800Z,4.70
2022-08-17T01:58:08.846Z,4.90
2022-08-17T02:03:12.743Z,6.12
2022-08-17T02:08:20.406Z,5.03
2022-08-17T02:13:22.914Z,4.80
2022-08-17T02:18:25.697Z,5.00
2022-08-17T02:28:32.343Z,4.50
2022-08-17T02:33:42.070Z,5.93
2022-08-17T02:38:45.574Z,5.30
2022-08-17T02:43:47.658Z,4.95
2022-08-17T02:48:50.399Z,5.47
2022-08-17T02:53:52.714Z,5.12
2022-08-17T02:59:14.841Z,5.85
2022-08-17T03:04:16.943Z,5.18
2022-08-17T03:09:19.067Z,5.55
2022-08-17T03:14:21.516Z,5.82
2022-08-17T03:19:28.433Z,4.47
2022-08-17T03:24:30.593Z,5.17
2022-08-17T03:29:32.696Z,4.30
2022-08-17T03:34:34.845Z,5.05
2022-08-17T03:39:37.062Z,4.93
2022-08-17T03:44:39.433Z,4.50
2022-08-17T03:50:00.046Z,4.40
2022-08-17T03:55:20.667Z,5.50
2022-08-17T04:00:39.767Z,5.00
2022-08-17T04:05:42.475Z,5.00
2022-08-17T04:10:45.197Z,6.28
2022-08-17T04:15:49.131Z,5.90
2022-08-17T04:20:51.247Z,5.75
2022-08-17T04:25:53.839Z,4.90
2022-08-17T04:30:59.577Z,5.40
2022-08-17T04:36:04.571Z,5.75
2022-08-17T04:41:28.964Z,4.47
2022-08-17T04:46:34.494Z,5.18
2022-08-17T04:51:54.680Z,4.05
2022-08-17T04:57:02.139Z,5.20
2022-08-17T05:02:04.288Z,5.60
2022-08-17T05:07:06.387Z,4.90
2022-08-17T05:12:08.524Z,5.35
2022-08-17T05:17:11.301Z,3.92
2022-08-17T05:22:14.588Z,4.60
2022-08-17T05:27:19.141Z,4.35
2022-08-17T05:32:39.285Z,3.25
2022-08-17T05:37:42.362Z,4.43
2022-08-17T05:42:44.662Z,4.43
2022-08-17T05:47:48.273Z,3.90
2022-08-17T05:53:11.354Z,4.40
2022-08-17T05:58:16.179Z,4.05
2022-08-17T06:03:45.897Z,5.15
2022-08-17T06:09:01.984Z,4.05
2022-08-17T06:14:18.186Z,5.28
2022-08-17T06:19:40.557Z,5.12
2022-08-17T06:24:54.091Z,4.57
2022-08-17T06:30:09.207Z,5.05
2022-08-17T06:35:15.420Z,5.05
2022-08-17T06:40:29.391Z,4.72
2022-08-17T06:45:37.360Z,4.90
2022-08-17T06:50:42.377Z,4.72
2022-08-17T06:55:58.496Z,4.93
2022-08-17T07:01:20.573Z,4.95
2022-08-17T07:06:27.660Z,4.68
2022-08-17T07:11:38.969Z,4.68
2022-08-17T07:16:47.799Z,5.40
2022-08-17T07:21:57.402Z,6.62
2022-08-17T07:27:05.772Z,5.15
2022-08-17T07:32:09.835Z,4.85
2022-08-17T07:37:12.620Z,5.05
2022-08-17T07:42:14.746Z,5.07
2022-08-17T07:47:36.044Z,5.55
2022-08-17T07:52:50.692Z,5.47
2022-08-17T07:57:59.081Z,5.78
2022-08-17T08:03:11.167Z,4.57
2022-08-17T08:08:30.147Z,6.20
2022-08-17T08:13:33.446Z,6.28
2022-08-17T08:18:54.606Z,5.55
2022-08-17T08:29:39.659Z,5.75
2022-08-17T08:35:13.015Z,7.25
2022-08-17T08:40:24.743Z,7.53
2022-08-17T08:45:44.630Z,5.75
2022-08-17T08:50:56.976Z,7.15
2022-08-17T08:56:09.069Z,7.07
2022-08-17T09:01:29.418Z,7.45
2022-08-17T09:06:43.302Z,6.45
2022-08-17T09:12:03.983Z,5.57
2022-08-17T09:17:21.822Z,6.80
2022-08-17T09:22:31.205Z,7.85
2022-08-17T09:27:41.674Z,6.87
2022-08-17T09:32:49.855Z,5.82
2022-08-17T09:38:05.137Z,4.60
2022-08-17T09:43:37.503Z,5.97
2022-08-17T09:48:46.955Z,5.47
2022-08-17T09:53:50.659Z,5.37
2022-08-17T09:59:13.873Z,6.00
2022-08-17T10:09:55.837Z,5.32
2022-08-17T10:15:13.980Z,5.25
2022-08-17T10:20:28.566Z,6.18
2022-08-17T10:26:10.106Z,5.22
2022-08-17T10:31:36.165Z,5.43
2022-08-17T10:37:01.074Z,5.62
2022-08-17T10:42:33.002Z,4.82
2022-08-17T10:48:06.127Z,4.80
2022-08-17T10:58:21.809Z,4.30
2022-08-17T11:03:26.088Z,4.90
2022-08-17T11:08:43.723Z,4.60
2022-08-17T11:14:04.498Z,4.55
2022-08-17T11:19:18.884Z,3.60
2022-08-17T11:24:43.366Z,4.10
2022-08-17T11:29:58.141Z,3.85
2022-08-17T11:35:22.306Z,4.18
2022-08-17T11:40:59.542Z,4.03
2022-08-17T11:46:51.669Z,3.12
2022-08-17T11:52:04.949Z,3.75
2022-08-17T11:57:26.451Z,3.58
2022-08-17T12:02:31.719Z,4.00
2022-08-17T12:07:42.865Z,3.05
2022-08-17T12:12:48.285Z,3.15
2022-08-17T12:17:53.786Z,3.17
2022-08-17T12:23:01.416Z,3.17
2022-08-17T12:28:07.870Z,3.42
2022-08-17T12:33:13.582Z,3.33
2022-08-17T12:38:33.316Z,3.33
2022-08-17T12:43:35.769Z,3.30
2022-08-17T12:48:38.043Z,3.08
2022-08-17T12:53:54.982Z,2.70
2022-08-17T12:58:57.834Z,3.72
2022-08-17T13:04:00.661Z,2.85
2022-08-17T13:09:35.664Z,3.12
2022-08-17T13:14:44.739Z,3.30
2022-08-17T13:19:50.680Z,2.78
2022-08-17T13:25:00.884Z,3.35
2022-08-17T13:30:12.005Z,3.60
2022-08-17T13:35:40.029Z,3.87
2022-08-17T13:40:50.139Z,3.35
2022-08-17T13:45:53.116Z,3.35
2022-08-17T13:50:55.225Z,2.92
2022-08-17T13:56:37.167Z,2.90
2022-08-17T14:01:36.599Z,2.83
2022-08-17T14:06:56.921Z,2.65
2022-08-17T14:12:00.378Z,3.30
2022-08-17T14:17:03.721Z,3.65
2022-08-17T14:22:11.528Z,2.78
2022-08-17T14:27:13.671Z,3.05
2022-08-17T14:32:21.007Z,3.15
2022-08-17T14:37:26.187Z,2.65
2022-08-17T14:42:32.385Z,2.33
2022-08-17T14:47:37.353Z,2.47
2022-08-17T14:52:43.805Z,2.28
2022-08-17T14:57:46.111Z,2.80
2022-08-17T15:02:54.768Z,2.80
2022-08-17T15:07:57.474Z,2.90
2022-08-17T15:13:00.387Z,2.42
2022-08-17T15:18:03.052Z,2.83
2022-08-17T15:23:06.905Z,2.20
2022-08-17T15:28:09.107Z,2.62
2022-08-17T15:33:17.489Z,2.42
2022-08-17T15:38:19.939Z,2.58
2022-08-17T15:43:32.515Z,2.53
2022-08-17T15:48:41.704Z,2.28
2022-08-17T15:53:48.326Z,2.20
2022-08-17T15:58:50.694Z,2.15
2022-08-17T16:04:04.631Z,2.28
2022-08-17T16:09:09.512Z,3.12
2022-08-17T16:14:11.891Z,2.72
2022-08-17T16:19:16.809Z,2.45
2022-08-17T16:24:19.035Z,2.80
2022-08-17T16:29:21.656Z,2.70
2022-08-17T16:34:23.907Z,2.70
2022-08-17T16:39:28.819Z,2.53
2022-08-17T16:44:32.154Z,3.22
2022-08-17T16:49:37.223Z,2.85
2022-08-17T16:54:43.339Z,2.90
2022-08-17T16:59:50.179Z,2.97
2022-08-17T17:05:14.201Z,2.97
2022-08-17T17:10:22.286Z,3.05
2022-08-17T17:15:30.348Z,3.25
2022-08-17T17:20:45.725Z,3.00
2022-08-17T17:26:16.982Z,2.85
2022-08-17T17:31:23.683Z,3.15
2022-08-17T17:36:32.588Z,3.60
2022-08-17T17:41:51.472Z,3.55
2022-08-17T17:46:57.267Z,3.15
2022-08-17T17:52:32.363Z,2.95
2022-08-17T17:58:01.032Z,2.83
2022-08-17T18:03:24.246Z,3.42
2022-08-17T18:08:34.771Z,2.78
2022-08-17T18:14:04.992Z,3.65
2022-08-17T18:19:12.163Z,3.85
2022-08-17T18:24:14.741Z,2.97
2022-08-17T18:29:31.928Z,3.28
2022-08-17T18:34:47.190Z,2.95
2022-08-17T18:39:49.827Z,2.97
2022-08-17T18:44:55.253Z,2.95
2022-08-17T18:50:33.499Z,3.83
2022-08-17T18:55:35.683Z,2.97
2022-08-17T19:00:44.933Z,3.25
2022-08-17T19:07:17.133Z,3.78
2022-08-17T19:13:00.605Z,4.70
2022-08-17T19:18:35.710Z,3.65
2022-08-17T19:23:41.933Z,3.87
2022-08-17T19:29:22.576Z,3.62
2022-08-17T19:34:33.525Z,3.75
2022-08-17T19:39:42.359Z,3.03
2022-08-17T19:44:56.465Z,3.95
2022-08-17T19:50:14.881Z,3.65
2022-08-17T19:55:24.654Z,4.12
2022-08-17T20:00:27.024Z,3.78
2022-08-17T20:06:00.926Z,3.35
2022-08-17T20:10:58.815Z,3.78
2022-08-17T20:16:02.666Z,3.70
2022-08-17T20:21:20.207Z,3.87
2022-08-17T20:26:34.279Z,3.80
2022-08-17T20:31:45.369Z,3.72
2022-08-17T20:37:12.374Z,4.00
2022-08-17T20:42:20.704Z,3.17
2022-08-17T20:47:30.258Z,3.53
2022-08-17T20:52:55.245Z,3.95
2022-08-17T20:57:57.416Z,3.67
2022-08-17T21:03:24.307Z,4.62
2022-08-17T21:08:34.439Z,3.33
2022-08-17T21:13:49.225Z,3.33
2022-08-17T21:19:17.881Z,4.25
2022-08-17T21:24:51.432Z,3.67
2022-08-17T21:30:06.479Z,4.53
2022-08-17T21:35:19.500Z,4.28
2022-08-17T21:40:26.184Z,4.30
2022-08-17T21:45:36.062Z,4.12
2022-08-17T21:50:41.510Z,3.58
2022-08-17T21:55:50.139Z,3.50
2022-08-17T22:01:09.592Z,3.60
2022-08-17T22:06:41.576Z,3.58
2022-08-17T22:12:07.466Z,3.33
2022-08-17T22:17:15.928Z,3.45
2022-08-17T22:22:35.099Z,3.92
2022-08-17T22:27:49.287Z,3.65
2022-08-17T22:32:51.963Z,4.35
2022-08-17T22:37:54.706Z,4.12
2022-08-17T22:43:00.035Z,4.07
2022-08-17T22:48:02.481Z,4.60
2022-08-17T22:53:34.143Z,4.65
2022-08-17T22:59:10.963Z,4.20
2022-08-17T23:04:30.895Z,4.53
2022-08-17T23:09:34.228Z,4.00
2022-08-17T23:14:45.758Z,4.20
2022-08-17T23:19:47.920Z,3.37
2022-08-17T23:24:50.543Z,4.90
2022-08-17T23:29:52.689Z,4.12
2022-08-17T23:34:54.833Z,4.65
2022-08-17T23:39:57.198Z,4.50
2022-08-17T23:50:05.378Z,3.80
2022-08-17T23:55:08.409Z,4.00
